Time;durP1;ratioP1;P1;durP2;ratioP2;P2;SDS_P1;SDS_P2;PMS_P1;PMS_P2;Temp;Humidity;BMP_temperature;BMP_pressure;BME280_temperature;BME280_humidity;BME280_pressure;Samples;Min_cycle;Max_cycle;Signal;HPM_P1;HPM_P2
2022/11/26 00:00:53;;;;;;;1.15;0.90;;;;;;;16.74;63.04;98953.66;2082442;28;20049;-51
2022/11/26 00:01:54;;;;;;;1.08;1.00;;;;;;;16.78;62.98;98950.63;2076500;28;20049;-49
2022/11/26 00:02:56;;;;;;;;;;;;;;;16.66;63.22;98959.09;2073190;28;20162;-49
2022/11/26 00:04:01;;;;;;;;;;;;;;;16.60;63.43;98959.78;2082583;28;19935;-52
2022/11/26 00:05:04;;;;;;;1.10;1.00;;;;;;;16.68;63.19;98954.34;2084172;28;19982;-49
2022/11/26 00:06:21;;;;;;;2.30;1.08;;;;;;;16.74;63.03;98956.31;2081378;28;20049;-53
2022/11/26 00:07:25;;;;;;;1.02;0.95;;;;;;;16.72;62.87;98953.00;2081337;28;20049;-51
2022/11/26 00:08:29;;;;;;;1.17;0.98;;;;;;;16.75;63.03;98949.94;2077663;28;20053;-48
2022/11/26 00:09:31;;;;;;;1.20;1.05;;;;;;;16.74;63.04;98961.69;2082314;28;20057;-46
2022/11/26 00:10:35;;;;;;;1.10;1.00;;;;;;;16.78;62.89;98953.31;2082417;28;20041;-53
2022/11/26 00:11:36;;;;;;;1.48;1.02;;;;;;;16.79;62.79;98952.28;2082371;28;20052;-46
2022/11/26 00:12:37;;;;;;;1.73;0.90;;;;;;;16.78;62.91;98946.09;2081312;28;20049;-47
2022/11/26 00:13:39;;;;;;;;;;;;;;;16.69;63.08;98952.53;2081668;28;20524;-47
2022/11/26 00:14:40;;;;;;;1.25;0.90;;;;;;;16.73;62.95;98954.63;2082320;28;19925;-47
2022/11/26 00:15:43;;;;;;;;;;;;;;;16.62;63.44;98955.09;2078153;28;20722;-45
2022/11/26 00:16:43;;;;;;;1.20;1.10;;;;;;;16.69;63.03;98955.22;2075783;28;19944;-50
2022/11/26 00:17:45;;;;;;;;;;;;;;;16.62;63.26;98956.94;2077700;28;20059;-50
2022/11/26 00:18:46;;;;;;;;;;;;;;;16.56;63.56;98950.47;2077662;28;19920;-46
2022/11/26 00:19:48;;;;;;;1.50;0.80;;;;;;;16.63;63.33;98953.25;2080929;28;19929;-46
2022/11/26 00:20:52;;;;;;;2.30;1.00;;;;;;;16.70;63.09;98948.81;2082001;28;20295;-49
2022/11/26 00:21:54;;;;;;;1.15;1.05;;;;;;;16.73;62.98;98946.59;2082259;28;20048;-47
2022/11/26 00:22:57;;;;;;;1.20;1.10;;;;;;;16.76;62.87;98942.72;2079426;28;20052;-47
2022/11/26 00:24:01;;;;;;;1.80;1.17;;;;;;;16.77;62.69;98944.44;2081011;28;20061;-46
2022/11/26 00:25:02;;;;;;;1.08;0.90;;;;;;;16.80;62.73;98945.91;2082363;28;20077;-47
2022/11/26 00:26:04;;;;;;;;;;;;;;;16.67;63.10;98946.53;2082121;28;20057;-47
2022/11/26 00:27:09;;;;;;;1.13;1.00;;;;;;;16.70;62.88;98944.28;2082246;28;19921;-47
2022/11/26 00:28:26;;;;;;;0.80;0.80;;;;;;;16.72;62.95;98938.78;2083424;28;20044;-45
2022/11/26 00:29:27;;;;;;;0.93;0.93;;;;;;;16.73;62.80;98943.09;2082171;28;20045;-48
2022/11/26 00:30:29;;;;;;;;;;;;;;;16.60;63.27;98938.38;2082156;28;20052;-48
2022/11/26 00:31:31;;;;;;;1.45;1.17;;;;;;;16.65;63.04;98935.97;2076689;28;21836;-49
2022/11/26 00:32:33;;;;;;;1.10;0.90;;;;;;;16.69;62.96;98937.28;2077560;28;20102;-48
2022/11/26 00:33:34;;;;;;;0.98;0.95;;;;;;;16.73;62.80;98933.22;2079435;28;20049;-48
2022/11/26 00:34:35;;;;;;;;;;;;;;;16.63;63.15;98935.34;2083311;28;20075;-46
2022/11/26 00:35:36;;;;;;;1.92;1.25;;;;;;;16.67;63.06;98938.47;2080002;28;19942;-45
2022/11/26 00:36:38;;;;;;;;;;;;;;;16.58;63.31;98935.06;2082400;28;20718;-49
2022/11/26 00:37:41;;;;;;;1.20;1.10;;;;;;;16.65;63.15;98930.63;2081305;28;19920;-50
2022/11/26 00:38:44;;;;;;;1.77;1.30;;;;;;;16.69;63.09;98936.47;2075236;28;20140;-46
2022/11/26 00:39:45;;;;;;;1.10;1.00;;;;;;;16.70;63.01;98938.13;2080290;28;20052;-47
2022/11/26 00:40:47;;;;;;;0.70;0.70;;;;;;;16.71;63.01;98931.72;2081354;28;20389;-45
2022/11/26 00:41:51;;;;;;;1.42;1.13;;;;;;;16.73;62.83;98929.72;2076175;28;20053;-46
2022/11/26 00:42:53;;;;;;;0.82;0.82;;;;;;;16.75;62.87;98930.38;2082015;28;20056;-46
2022/11/26 00:43:55;;;;;;;1.15;1.08;;;;;;;16.74;62.84;98924.19;2082011;28;20140;-47
2022/11/26 00:44:56;;;;;;;1.67;0.90;;;;;;;16.74;62.79;98934.03;2081419;28;20493;-47
2022/11/26 00:45:57;;;;;;;;;;;;;;;16.62;63.18;98933.66;2082273;28;20100;-45
2022/11/26 00:47:00;;;;;;;1.25;1.15;;;;;;;16.66;63.00;98928.75;2080977;28;19935;-46
2022/11/26 00:48:02;;;;;;;0.75;0.70;;;;;;;16.69;62.91;98926.56;2080945;28;20088;-45
2022/11/26 00:49:02;;;;;;;2.10;1.10;;;;;;;16.70;62.95;98920.19;2082473;28;20052;-48
2022/11/26 00:50:05;;;;;;;;;;;;;;;16.57;63.26;98922.66;2082518;28;20049;-46
2022/11/26 00:51:08;;;;;;;0.75;0.75;;;;;;;16.63;63.10;98927.31;2082197;28;19928;-47
2022/11/26 00:52:24;;;;;;;1.48;1.15;;;;;;;16.65;62.90;98929.78;2081525;28;20080;-47
2022/11/26 00:53:25;;;;;;;1.20;1.10;;;;;;;16.67;63.01;98933.13;2078444;28;20056;-47
2022/11/26 00:54:27;;;;;;;;;;;;;;;16.57;63.14;98927.19;2080123;28;20298;-47
2022/11/26 00:55:28;;;;;;;;;;;;;;;16.50;63.60;98935.16;2083224;28;20402;-46
2022/11/26 00:56:31;;;;;;;;;;;;;;;16.45;63.54;98929.50;2082571;28;19933;-47
2022/11/26 00:57:32;;;;;;;0.93;0.90;;;;;;;16.56;63.50;98931.72;2076211;28;19925;-47
2022/11/26 00:58:33;;;;;;;;;;;;;;;16.51;63.50;98936.78;2076856;28;20458;-48
2022/11/26 00:59:34;;;;;;;1.30;1.13;;;;;;;16.58;63.26;98944.94;2077354;28;19934;-48
2022/11/26 01:00:36;;;;;;;;;;;;;;;16.52;63.46;98946.50;2079665;28;20059;-45
2022/11/26 01:01:36;;;;;;;;;;;;;;;16.47;63.54;98949.72;2075081;28;19986;-48
2022/11/26 01:02:40;;;;;;;2.17;1.33;;;;;;;16.55;63.35;98951.50;2076724;28;19932;-47
2022/11/26 01:03:41;;;;;;;1.67;1.33;;;;;;;16.60;63.09;98949.06;2074560;28;20049;-47
2022/11/26 01:04:43;;;;;;;1.55;1.10;;;;;;;16.62;62.97;98939.03;2079813;28;20044;-46
2022/11/26 01:05:47;;;;;;;0.98;0.85;;;;;;;16.66;62.93;98940.34;2078188;28;20068;-45
2022/11/26 01:06:49;;;;;;;1.67;1.40;;;;;;;16.67;63.01;98933.97;2075561;28;20060;-48
2022/11/26 01:07:51;;;;;;;0.60;0.60;;;;;;;16.67;63.05;98939.31;2078879;28;20053;-47
2022/11/26 01:08:53;;;;;;;1.48;1.15;;;;;;;16.68;62.92;98935.59;2082088;28;20045;-49
2022/11/26 01:09:54;;;;;;;1.20;1.10;;;;;;;16.70;62.79;98940.78;2081162;28;20045;-47
2022/11/26 01:10:56;;;;;;;;;;;;;;;16.58;63.00;98937.75;2081873;28;20168;-49
2022/11/26 01:11:57;;;;;;;0.70;0.70;;;;;;;16.60;63.13;98938.38;2082192;28;19928;-49
2022/11/26 01:12:58;;;;;;;;;;;;;;;16.51;63.41;98939.47;2076312;28;20063;-47
2022/11/26 01:13:59;;;;;;;;;;;;;;;16.43;63.38;98942.22;2080373;28;19924;-48
2022/11/26 01:15:01;;;;;;;3.60;0.85;;;;;;;16.52;63.37;98941.16;2083192;28;20020;-46
2022/11/26 01:16:14;;;;;;;1.30;1.15;;;;;;;16.58;63.28;98944.94;2081419;28;20049;-46
2022/11/26 01:17:15;;;;;;;1.02;0.85;;;;;;;16.60;63.08;98945.56;2073999;28;20053;-47
2022/11/26 01:18:19;;;;;;;1.48;1.20;;;;;;;16.64;63.00;98941.53;2070097;28;20056;-50
2022/11/26 01:19:21;;;;;;;0.75;0.75;;;;;;;16.64;63.07;98934.31;2072644;28;20061;-47
2022/11/26 01:20:25;;;;;;;0.90;0.90;;;;;;;16.67;63.00;98944.66;2073800;28;20056;-46
2022/11/26 01:21:28;;;;;;;1.15;1.10;;;;;;;16.66;62.96;98942.16;2079377;28;20140;-47
2022/11/26 01:22:29;;;;;;;0.73;0.73;;;;;;;16.65;62.87;98941.34;2077115;28;20091;-48
2022/11/26 01:23:30;;;;;;;;;;;;;;;16.51;63.19;98940.28;2078398;28;20123;-50
2022/11/26 01:24:31;;;;;;;1.67;1.13;;;;;;;16.55;63.19;98938.09;2077209;28;19921;-47
2022/11/26 01:25:33;;;;;;;;;;;;;;;16.49;63.48;98938.81;2078919;28;20057;-46
2022/11/26 01:26:37;;;;;;;0.90;0.90;;;;;;;16.56;63.12;98939.75;2083592;28;19924;-48
2022/11/26 01:27:39;;;;;;;1.10;0.90;;;;;;;16.60;62.99;98933.00;2082229;28;20980;-50
2022/11/26 01:28:40;;;;;;;0.95;0.95;;;;;;;16.64;62.94;98938.84;2083005;28;20138;-46
2022/11/26 01:29:42;;;;;;;;;;;;;;;16.52;63.29;98935.81;2082565;28;20453;-46
2022/11/26 01:30:43;;;;;;;0.98;0.98;;;;;;;16.57;63.11;98927.19;2081450;28;19931;-49
2022/11/26 01:31:44;;;;;;;;;;;;;;;16.49;63.32;98931.63;2082590;28;20080;-46
2022/11/26 01:32:45;;;;;;;1.67;0.93;;;;;;;16.53;63.24;98934.78;2083549;28;19935;-49
2022/11/26 01:33:49;;;;;;;;;;;;;;;16.46;63.33;98936.50;2083009;28;20542;-46
2022/11/26 01:34:49;;;;;;;1.00;1.00;;;;;;;16.52;63.29;98941.16;2083331;28;20434;-47
2022/11/26 01:35:51;;;;;;;;;;;;;;;16.43;63.55;98942.22;2080918;28;20124;-48
2022/11/26 01:36:52;;;;;;;1.10;1.00;;;;;;;16.47;63.32;98933.66;2082748;28;19932;-46
2022/11/26 01:37:54;;;;;;;;;;;;;;;16.43;63.41;98950.25;2082928;28;20068;-48
2022/11/26 01:38:56;;;;;;;1.00;1.00;;;;;;;16.51;63.26;98942.97;2075034;28;19925;-47
2022/11/26 01:39:58;;;;;;;1.27;1.00;;;;;;;16.56;63.00;98942.44;2076296;28;20122;-48
2022/11/26 01:41:09;;;;;;;1.75;0.88;;;;;;;16.60;62.98;98941.03;2081069;28;20515;-47
2022/11/26 01:42:25;;;;;;;1.23;1.13;;;;;;;16.56;62.99;98949.66;2076881;28;20634;-50
2022/11/26 01:43:28;;;;;;;0.85;0.82;;;;;;;16.59;62.98;98946.59;2083122;28;20053;-48
2022/11/26 01:44:31;;;;;;;1.30;0.85;;;;;;;16.60;62.83;98954.44;2083646;28;20447;-47
2022/11/26 01:45:32;;;;;;;1.80;0.98;;;;;;;16.61;62.90;98948.09;2083212;28;20638;-47
2022/11/26 01:46:35;;;;;;;;;;;;;;;16.48;63.21;98939.84;2083385;28;20076;-48
2022/11/26 01:47:36;;;;;;;2.53;1.05;;;;;;;16.52;63.09;98957.22;2075564;28;19921;-46
2022/11/26 01:48:38;;;;;;;;;;;;;;;16.43;63.37;98952.94;2082954;28;22393;-47
2022/11/26 01:49:40;;;;;;;;;;;;;;;16.37;63.47;98948.31;2082886;28;19921;-48
2022/11/26 01:50:54;;;;;;;1.05;0.95;;;;;;;16.45;63.33;98959.78;2081496;28;19924;-46
2022/11/26 01:52:02;;;;;;;1.02;0.93;;;;;;;16.50;63.23;98960.06;2082319;28;20064;-46
2022/11/26 01:53:09;;;;;;;1.10;0.98;;;;;;;16.57;63.10;98965.50;2078878;28;20059;-45
2022/11/26 01:54:10;;;;;;;0.73;0.73;;;;;;;16.54;62.99;98955.16;2083577;28;20991;-47
2022/11/26 01:55:16;;;;;;;1.00;0.85;;;;;;;16.57;63.12;98962.00;2083380;28;20124;-47
2022/11/26 01:56:32;;;;;;;1.15;0.88;;;;;;;16.57;62.95;98964.69;2083099;28;20045;-46
2022/11/26 01:57:37;;;;;;;0.98;0.98;;;;;;;16.58;62.97;98966.38;2082480;28;20049;-48
2022/11/26 01:58:43;;;;;;;1.20;1.10;;;;;;;16.58;63.05;98961.00;2083384;28;20520;-46
2022/11/26 01:59:49;;;;;;;0.80;0.80;;;;;;;16.57;62.96;98970.88;2083244;28;20865;-50
2022/11/26 02:00:51;;;;;;;1.23;1.10;;;;;;;16.58;63.11;98966.38;2082944;28;20098;-49
2022/11/26 02:01:55;;;;;;;0.95;0.95;;;;;;;16.59;62.91;98965.34;2082913;28;20385;-48
2022/11/26 02:02:56;;;;;;;1.38;1.08;;;;;;;16.57;62.95;98962.00;2083198;28;20045;-48
2022/11/26 02:04:00;;;;;;;;;;;;;;;16.47;63.03;98964.97;2084317;28;20527;-47
2022/11/26 02:05:10;;;;;;;1.15;0.90;;;;;;;16.50;63.14;98962.75;2078805;28;19935;-48
2022/11/26 02:06:19;;;;;;;0.88;0.80;;;;;;;16.52;63.16;98958.03;2074354;28;20134;-48
2022/11/26 02:07:20;;;;;;;1.48;0.98;;;;;;;16.55;62.93;98956.84;2081142;28;20052;-46
2022/11/26 02:08:21;;;;;;;;;;;;;;;16.46;63.06;98955.25;2080026;28;20568;-46
2022/11/26 02:09:24;;;;;;;;;;;;;;;16.37;63.43;98956.34;2079286;28;20003;-47
2022/11/26 02:10:25;;;;;;;2.00;1.00;;;;;;;16.45;63.36;98956.28;2076430;28;19921;-45
2022/11/26 02:11:26;;;;;;;;;;;;;;;16.38;63.39;98950.81;2077112;28;20186;-47
2022/11/26 02:12:27;;;;;;;1.30;0.90;;;;;;;16.42;63.27;98957.47;2081709;28;19936;-47
2022/11/26 02:13:29;;;;;;;0.82;0.82;;;;;;;16.49;63.24;98957.56;2077992;28;20094;-46
2022/11/26 02:14:34;;;;;;;1.58;0.95;;;;;;;16.53;63.01;98953.50;2078428;28;20536;-46
2022/11/26 02:15:40;;;;;;;1.23;1.13;;;;;;;16.54;62.89;98957.84;2079163;28;20048;-46
2022/11/26 02:17:10;;;;;;;1.38;0.95;;;;;;;16.49;62.99;98952.19;2081836;28;20053;-46
2022/11/26 02:18:11;;;;;;;0.93;0.70;;;;;;;16.51;63.00;98958.22;2077631;28;20067;-49
2022/11/26 02:19:51;;;;;;;1.25;0.90;;;;;;;16.49;63.03;98953.06;2083226;28;20045;-50
2022/11/26 02:21:03;;;;;;;0.80;0.80;;;;;;;16.46;63.16;98952.56;2058133;28;20057;-51
2022/11/26 02:22:17;;;;;;;1.15;1.05;;;;;;;16.50;63.08;98949.34;2076917;28;20053;-47
2022/11/26 02:24:01;;;;;;;1.10;0.98;;;;;;;16.47;63.12;98955.06;2083813;28;20083;-46
2022/11/26 02:25:11;;;;;;;1.17;0.80;;;;;;;16.49;63.12;98949.53;2050517;28;20790;-46
2022/11/26 02:26:44;;;;;;;1.08;0.98;;;;;;;16.46;63.11;98948.03;2081635;28;20045;-49
2022/11/26 02:28:07;;;;;;;0.98;0.98;;;;;;;16.47;63.07;98951.56;2083041;28;20052;-46
2022/11/26 02:29:20;;;;;;;1.20;0.85;;;;;;;16.46;63.11;98940.00;2076594;28;20064;-49
2022/11/26 02:30:22;;;;;;;0.80;0.80;;;;;;;16.50;62.97;98951.22;2075006;28;20068;-48
2022/11/26 02:31:33;;;;;;;0.95;0.82;;;;;;;16.49;62.96;98946.84;2081824;28;20113;-47
2022/11/26 02:32:43;;;;;;;0.93;0.93;;;;;;;16.47;62.96;98949.72;2082399;28;20051;-47
2022/11/26 02:33:52;;;;;;;1.15;1.00;;;;;;;16.46;63.17;98941.84;2079090;28;20144;-48
2022/11/26 02:35:01;;;;;;;0.85;0.85;;;;;;;16.48;63.04;98945.19;2080911;28;20041;-47
2022/11/26 02:36:12;;;;;;;1.02;0.82;;;;;;;16.48;63.06;98945.19;2083716;28;20057;-47
2022/11/26 02:37:17;;;;;;;1.08;1.08;;;;;;;16.47;63.04;98939.00;2079795;28;20045;-47
2022/11/26 02:38:22;;;;;;;0.98;0.77;;;;;;;16.52;63.02;98943.84;2080264;28;20049;-46
2022/11/26 02:39:27;;;;;;;0.70;0.70;;;;;;;16.52;62.92;98951.88;2083292;28;22206;-47
2022/11/26 02:40:29;;;;;;;0.73;0.73;;;;;;;16.52;62.83;98941.16;2083082;28;20056;-47
2022/11/26 02:41:32;;;;;;;2.25;0.80;;;;;;;16.52;62.81;98941.16;2082611;28;20440;-48
2022/11/26 02:42:35;;;;;;;1.00;0.85;;;;;;;16.53;62.81;98946.31;2082017;28;20090;-48
2022/11/26 02:43:37;;;;;;;1.95;0.93;;;;;;;16.50;62.98;98944.00;2082901;28;20048;-46
2022/11/26 02:44:43;;;;;;;1.98;1.10;;;;;;;16.53;62.82;98950.84;2083798;28;20053;-51
2022/11/26 02:45:49;;;;;;;1.17;1.00;;;;;;;16.50;62.84;98956.56;2083695;28;20052;-49
2022/11/26 02:46:57;;;;;;;1.15;1.05;;;;;;;16.52;62.78;98962.56;2082039;28;21508;-47
2022/11/26 02:48:02;;;;;;;0.85;0.70;;;;;;;16.52;62.74;98952.69;2078876;28;20056;-51
2022/11/26 02:49:03;;;;;;;0.98;0.75;;;;;;;16.53;62.75;98948.16;2083718;28;20483;-47
2022/11/26 02:50:08;;;;;;;;;;;;;;;16.38;63.12;98949.97;2083065;28;22017;-46
2022/11/26 02:51:14;;;;;;;1.10;0.90;;;;;;;16.43;63.00;98942.22;2081932;28;19955;-48
2022/11/26 02:52:17;;;;;;;0.80;0.80;;;;;;;16.45;63.06;98945.56;2083142;28;20045;-46
2022/11/26 02:53:21;;;;;;;1.33;1.05;;;;;;;16.50;62.89;98943.19;2083930;28;20052;-47
2022/11/26 02:54:24;;;;;;;0.88;0.80;;;;;;;16.51;62.91;98944.81;2083593;28;20058;-49
2022/11/26 02:55:30;;;;;;;0.73;0.70;;;;;;;16.52;62.78;98938.47;2085222;28;20041;-48
2022/11/26 02:56:31;;;;;;;1.17;0.77;;;;;;;16.50;62.69;98933.28;2083578;28;20049;-47
2022/11/26 02:57:34;;;;;;;;;;;;;;;16.41;63.11;98938.88;2083014;28;20168;-46
2022/11/26 02:58:35;;;;;;;0.90;0.80;;;;;;;16.45;62.94;98940.22;2081959;28;19925;-46
2022/11/26 02:59:38;;;;;;;0.98;0.98;;;;;;;16.46;63.02;98941.84;2082593;28;20045;-48
2022/11/26 03:00:41;;;;;;;1.38;1.05;;;;;;;16.49;62.94;98941.50;2081919;28;20668;-46
2022/11/26 03:01:51;;;;;;;1.55;1.02;;;;;;;16.48;62.87;98945.19;2078447;28;20107;-51
2022/11/26 03:02:58;;;;;;;0.88;0.88;;;;;;;16.49;62.77;98942.34;2080812;28;20134;-46
2022/11/26 03:04:05;;;;;;;0.80;0.80;;;;;;;16.50;62.78;98938.66;2078511;28;20519;-47
2022/11/26 03:05:07;;;;;;;0.77;0.73;;;;;;;16.50;62.75;98940.50;2082593;28;20049;-49
2022/11/26 03:06:12;;;;;;;0.63;0.60;;;;;;;16.51;62.68;98944.81;2072238;28;20128;-50
2022/11/26 03:07:14;;;;;;;0.80;0.80;;;;;;;16.50;62.74;98935.16;2082552;28;20041;-48
2022/11/26 03:08:17;;;;;;;1.25;0.93;;;;;;;16.49;62.79;98941.50;2082233;28;20780;-46
2022/11/26 03:09:21;;;;;;;1.48;1.10;;;;;;;16.47;62.88;98938.19;2083044;28;20041;-46
2022/11/26 03:10:26;;;;;;;1.70;1.00;;;;;;;16.49;62.74;98934.31;2082868;28;20068;-45
2022/11/26 03:11:27;;;;;;;1.05;0.90;;;;;;;16.49;62.71;98936.13;2083604;28;20049;-46
2022/11/26 03:12:29;;;;;;;;;;;;;;;16.37;63.01;98932.25;2082889;28;20163;-47
2022/11/26 03:13:30;;;;;;;1.00;0.88;;;;;;;16.41;63.08;98938.88;2082727;28;19932;-48
2022/11/26 03:14:31;;;;;;;1.08;0.90;;;;;;;16.43;63.00;98942.22;2081876;28;20059;-46
2022/11/26 03:15:33;;;;;;;;;;;;;;;16.33;63.23;98930.97;2080241;28;20041;-50
2022/11/26 03:16:34;;;;;;;0.70;0.70;;;;;;;16.39;63.15;98935.59;2081244;28;20526;-48
2022/11/26 03:17:37;;;;;;;;;;;;;;;16.31;63.33;98941.84;2082083;28;20055;-47
2022/11/26 03:18:37;;;;;;;1.42;1.08;;;;;;;16.36;63.14;98938.63;2083035;28;20377;-47
2022/11/26 03:19:39;;;;;;;;;;;;;;;16.28;63.36;98940.34;2084526;28;20053;-50
2022/11/26 03:20:41;;;;;;;1.13;0.90;;;;;;;16.35;63.23;98940.44;2083743;28;20011;-48
2022/11/26 03:21:43;;;;;;;0.90;0.90;;;;;;;16.42;63.04;98937.91;2084139;28;20046;-48
2022/11/26 03:22:44;;;;;;;;;;;;;;;16.33;63.09;98939.00;2082828;28;20103;-47
2022/11/26 03:23:45;;;;;;;1.25;1.08;;;;;;;16.35;63.10;98937.78;2083934;28;19931;-48
2022/11/26 03:24:47;;;;;;;;;;;;;;;16.27;63.44;98941.38;2084125;28;20063;-48
2022/11/26 03:25:47;;;;;;;;;;;;;;;16.23;63.50;98937.38;2084475;28;19924;-48
2022/11/26 03:26:49;;;;;;;1.30;1.20;;;;;;;16.30;63.38;98943.69;2084524;28;20016;-49
2022/11/26 03:27:50;;;;;;;0.63;0.63;;;;;;;16.35;63.12;98939.63;2084024;28;21196;-47
2022/11/26 03:28:52;;;;;;;;;;;;;;;16.29;63.29;98938.50;2084100;28;20064;-49
2022/11/26 03:29:52;;;;;;;;;;;;;;;16.22;63.40;98940.25;2085777;28;19921;-49
2022/11/26 03:30:54;;;;;;;0.83;0.73;;;;;;;16.28;63.27;98944.88;2083856;28;19979;-48
2022/11/26 03:31:55;;;;;;;0.60;0.60;;;;;;;16.34;63.21;98936.13;2086489;28;20045;-47
2022/11/26 03:32:58;;;;;;;;;;;;;;;16.23;63.35;98929.34;2086563;28;20102;-52
2022/11/26 03:33:59;;;;;;;1.15;1.00;;;;;;;16.30;63.21;98932.16;2084335;28;20400;-47
2022/11/26 03:35:01;;;;;;;;;;;;;;;16.22;63.35;98925.03;2082690;28;20053;-46
2022/11/26 03:36:02;;;;;;;0.80;0.80;;;;;;;16.31;63.16;98931.97;2084418;28;19927;-51
2022/11/26 03:37:03;;;;;;;;;;;;;;;16.24;63.35;98933.72;2082639;28;20548;-45
2022/11/26 03:38:04;;;;;;;;;;;;;;;16.20;63.75;98936.91;2083143;28;19932;-46
2022/11/26 03:39:06;;;;;;;1.23;0.90;;;;;;;16.26;63.41;98939.69;2074267;28;19931;-48
2022/11/26 03:40:08;;;;;;;1.10;0.88;;;;;;;16.31;63.13;98929.28;2080988;28;20633;-47
2022/11/26 03:41:09;;;;;;;1.25;0.80;;;;;;;16.34;63.14;98929.94;2082115;28;20060;-49
2022/11/26 03:42:10;;;;;;;1.13;1.02;;;;;;;16.39;62.99;98924.88;2082212;28;20071;-46
2022/11/26 03:43:12;;;;;;;;;;;;;;;16.30;63.15;98940.19;2083118;28;20055;-47
2022/11/26 03:44:13;;;;;;;;;;;;;;;16.20;63.56;98937.75;2083892;28;20917;-45
2022/11/26 03:45:15;;;;;;;1.10;0.90;;;;;;;16.26;63.29;98939.69;2078091;28;19925;-47
2022/11/26 03:46:16;;;;;;;1.08;0.98;;;;;;;16.35;63.10;98939.63;2078519;28;20485;-50
2022/11/26 03:47:18;;;;;;;;;;;;;;;16.25;63.24;98930.00;2076390;28;20047;-50
2022/11/26 03:48:20;;;;;;;;;;;;;;;16.18;63.52;98926.38;2077594;28;19957;-47
2022/11/26 03:49:22;;;;;;;1.35;0.80;;;;;;;16.28;63.30;98936.84;2076465;28;19924;-47
2022/11/26 03:50:22;;;;;;;1.00;0.88;;;;;;;16.33;63.22;98933.63;2078031;28;20052;-49
2022/11/26 03:51:24;;;;;;;;;;;;;;;16.24;63.41;98932.84;2081844;28;20055;-50
2022/11/26 03:52:25;;;;;;;1.08;0.90;;;;;;;16.28;63.26;98939.53;2083407;28;19925;-46
2022/11/26 03:53:27;;;;;;;;;;;;;;;16.21;63.35;98933.22;2083186;28;20067;-47
2022/11/26 03:54:28;;;;;;;0.85;0.80;;;;;;;16.28;63.18;98942.19;2082824;28;19924;-52
2022/11/26 03:55:30;;;;;;;1.02;0.93;;;;;;;16.35;63.05;98935.09;2082358;28;20622;-50
2022/11/26 03:56:30;;;;;;;1.27;1.08;;;;;;;16.38;62.97;98939.25;2080900;28;20049;-50
2022/11/26 03:57:32;;;;;;;;;;;;;;;16.27;63.18;98932.53;2082218;28;20079;-47
2022/11/26 03:58:33;;;;;;;;;;;;;;;16.18;63.40;98933.59;2083159;28;19921;-49
2022/11/26 03:59:35;;;;;;;1.25;0.77;;;;;;;16.22;63.42;98938.41;2081745;28;19925;-49
2022/11/26 04:00:36;;;;;;;0.90;0.90;;;;;;;16.27;63.29;98941.38;2076167;28;20057;-53
2022/11/26 04:01:37;;;;;;;;;;;;;;;16.21;63.28;98942.06;2076030;28;20047;-48
2022/11/26 04:02:38;;;;;;;;;;;;;;;16.15;63.61;98942.81;2082763;28;19971;-50
2022/11/26 04:03:41;;;;;;;0.90;0.70;;;;;;;16.26;63.33;98945.03;2081566;28;19925;-49
2022/11/26 04:04:43;;;;;;;0.73;0.70;;;;;;;16.30;63.17;98943.69;2081341;28;20044;-48
2022/11/26 04:05:44;;;;;;;0.63;0.63;;;;;;;16.32;63.05;98940.81;2077089;28;20056;-49
2022/11/26 04:06:46;;;;;;;;;;;;;;;16.24;63.27;98938.22;2074360;28;20059;-47
2022/11/26 04:07:46;;;;;;;1.25;0.88;;;;;;;16.26;63.32;98941.53;2079297;28;19939;-53
2022/11/26 04:08:48;;;;;;;;;;;;;;;16.20;63.29;98945.78;2076894;28;20416;-49
2022/11/26 04:09:49;;;;;;;0.90;0.82;;;;;;;16.27;62.77;98944.06;2079251;28;19931;-52
2022/11/26 04:10:51;;;;;;;;;;;;;;;16.18;63.50;98944.28;2072190;28;20071;-51
2022/11/26 04:11:51;;;;;;;0.82;0.82;;;;;;;16.24;63.21;98939.06;2079631;28;19928;-52
2022/11/26 04:12:53;;;;;;;;;;;;;;;16.18;63.46;98944.28;2072738;28;20155;-50
2022/11/26 04:13:54;;;;;;;0.90;0.90;;;;;;;16.24;63.21;98944.41;2074750;28;19936;-53
2022/11/26 04:14:55;;;;;;;;;;;;;;;16.19;63.33;98954.00;2077870;28;20077;-48
2022/11/26 04:15:56;;;;;;;0.90;0.90;;;;;;;16.23;63.35;98941.91;2082190;28;19963;-46
2022/11/26 04:16:58;;;;;;;;;;;;;;;16.15;63.58;98947.31;2080530;28;20763;-49
2022/11/26 04:17:59;;;;;;;0.88;0.70;;;;;;;16.22;63.37;98954.47;2081845;28;20395;-49
2022/11/26 04:19:01;;;;;;;;;;;;;;;16.16;63.44;98954.34;2080704;28;20057;-49
2022/11/26 04:20:03;;;;;;;0.95;0.90;;;;;;;16.23;63.32;98953.44;2082390;28;19924;-46
2022/11/26 04:21:06;;;;;;;0.80;0.68;;;;;;;16.28;63.01;98944.88;2081581;28;20049;-45
2022/11/26 04:22:07;;;;;;;0.90;0.90;;;;;;;16.28;63.10;98953.75;2082379;28;23630;-50
2022/11/26 04:23:09;;;;;;;;;;;;;;;16.17;63.36;98954.16;2082783;28;20049;-50
2022/11/26 04:24:09;;;;;;;1.48;0.90;;;;;;;16.22;63.33;98959.00;2082063;28;19932;-52
2022/11/26 04:25:11;;;;;;;;;;;;;;;16.13;63.51;98960.91;2082781;28;20041;-46
2022/11/26 04:26:12;;;;;;;;;;;;;;;16.09;63.63;98962.25;2078629;28;19925;-49
2022/11/26 04:27:13;;;;;;;1.60;1.00;;;;;;;16.17;63.40;98956.84;2078779;28;19925;-51
2022/11/26 04:28:14;;;;;;;0.90;0.80;;;;;;;16.26;63.05;98957.59;2080720;28;20295;-52
2022/11/26 04:29:16;;;;;;;;;;;;;;;16.18;63.26;98957.66;2082614;28;20045;-44
2022/11/26 04:30:17;;;;;;;;;;;;;;;16.11;63.46;98957.56;2079763;28;20736;-52
2022/11/26 04:31:19;;;;;;;1.50;1.05;;;;;;;16.18;63.28;98953.16;2079168;28;19940;-49
2022/11/26 04:32:19;;;;;;;1.00;0.82;;;;;;;16.24;63.10;98952.44;2081823;28;20523;-49
2022/11/26 04:33:21;;;;;;;;;;;;;;;16.16;63.41;98949.84;2082372;28;20136;-50
2022/11/26 04:34:24;;;;;;;;;;;;;;;16.11;63.51;98954.88;2083007;28;20514;-45
2022/11/26 04:35:25;;;;;;;1.23;1.00;;;;;;;16.18;63.29;98950.47;2081674;28;20962;-46
2022/11/26 04:36:27;;;;;;;;;;;;;;;16.11;63.55;98954.06;2082686;28;20053;-48
2022/11/26 04:37:27;;;;;;;1.13;0.90;;;;;;;16.18;63.23;98953.16;2080771;28;19924;-50
2022/11/26 04:38:30;;;;;;;;;;;;;;;16.13;63.49;98958.22;2084046;28;20053;-46
2022/11/26 04:39:31;;;;;;;1.20;0.80;;;;;;;16.19;63.30;98954.00;2082399;28;19920;-51
2022/11/26 04:40:32;;;;;;;;;;;;;;;16.13;63.39;98957.38;2082320;28;20044;-46
2022/11/26 04:41:34;;;;;;;1.23;0.95;;;;;;;16.19;63.34;98957.50;2081340;28;19921;-47
2022/11/26 04:42:35;;;;;;;0.98;0.85;;;;;;;16.25;63.14;98962.13;2079553;28;20041;-47
2022/11/26 04:43:37;;;;;;;;;;;;;;;16.14;63.30;98962.56;2081304;28;20051;-45
2022/11/26 04:44:37;;;;;;;1.50;0.90;;;;;;;16.20;63.26;98959.16;2080567;28;19924;-49
2022/11/26 04:45:39;;;;;;;;;;;;;;;16.11;63.47;98954.88;2083381;28;20059;-50
2022/11/26 04:46:40;;;;;;;0.85;0.85;;;;;;;16.17;63.36;98956.84;2080653;28;19928;-48
2022/11/26 04:47:41;;;;;;;;;;;;;;;16.09;63.43;98956.91;2082390;28;20052;-46
2022/11/26 04:48:42;;;;;;;0.88;0.85;;;;;;;16.15;63.38;98956.19;2082090;28;19928;-49
2022/11/26 04:49:45;;;;;;;;;;;;;;;16.07;63.60;98954.44;2082105;28;20846;-49
2022/11/26 04:50:47;;;;;;;0.77;0.77;;;;;;;16.14;63.45;98959.06;2082550;28;19921;-44
2022/11/26 04:51:49;;;;;;;1.13;1.02;;;;;;;16.17;63.25;98956.84;2079883;28;20048;-48
2022/11/26 04:52:49;;;;;;;1.70;0.82;;;;;;;16.23;63.11;98963.31;2082761;28;20075;-52
2022/11/26 04:53:51;;;;;;;;;;;;;;;16.11;63.42;98973.63;2078948;28;20127;-49
2022/11/26 04:54:52;;;;;;;0.95;0.95;;;;;;;16.13;63.51;98968.06;2076832;28;19921;-48
2022/11/26 04:55:53;;;;;;;;;;;;;;;16.05;63.61;98966.31;2079552;28;20143;-54
2022/11/26 04:56:54;;;;;;;;;;;;;;;16.00;63.97;98966.03;2079342;28;20546;-52
2022/11/26 04:57:56;;;;;;;1.08;0.95;;;;;;;16.07;63.58;98957.09;2079043;28;19952;-51
2022/11/26 04:58:57;;;;;;;0.80;0.80;;;;;;;16.14;63.41;98959.88;2082045;28;20072;-50
2022/11/26 04:59:58;;;;;;;;;;;;;;;16.08;63.55;98965.97;2083013;28;20086;-49
2022/11/26 05:00:59;;;;;;;1.58;1.10;;;;;;;16.14;63.36;98957.22;2074193;28;20405;-46
2022/11/26 05:02:01;;;;;;;;;;;;;;;16.08;63.50;98960.59;2083796;28;20049;-49
2022/11/26 05:03:01;;;;;;;;;;;;;;;16.02;63.71;98958.66;2083084;28;19921;-48
2022/11/26 05:04:03;;;;;;;0.80;0.70;;;;;;;16.07;63.65;98956.25;2084135;28;19924;-49
2022/11/26 05:05:06;;;;;;;1.10;0.90;;;;;;;16.14;63.43;98962.56;2083404;28;20307;-48
2022/11/26 05:06:09;;;;;;;1.60;1.05;;;;;;;16.20;63.20;98959.16;2083724;28;20056;-48
2022/11/26 05:07:10;;;;;;;0.95;0.80;;;;;;;16.24;63.04;98957.81;2079015;28;20072;-50